メインページ
METAR-TAF:

METAR-TAF

空港 :

プリンスルパート, ブリティッシュコロンビア州, カナダ

緯度: 54-18N, 経度: 130-26W, 海抜: 34m

現時点の気象観測

当レポートは53分前の04:00(UTC)に作成
東/北東の風 4kt
気温 4°C
湿度 100%
気圧 1027 hPa
視程: 14.5km
高度13000ftの曇り

METAR: CYPR 170400Z AUTO 07004KT 9SM OVC130 04/04 A3033 RMK SLP275

時間: 20:53 (04:53 UTC)

予報

当レポートは4時間14分前の00:39(UTC)に作成
予報は17日の 01時(UTC)から 17日の 13時(UTC)まで有効
変向風 3kt
視程: 10km
高度14000ftの雲は散在している
高度20000ftの千切れ雲あり
17日の 01時(UTC)から 17日の 06時(UTC)まで一時的に
高度14000ftの千切れ雲あり
17日の 0600時(UTC)から
の風 5kt
視程: 10km
高度8000ftの千切れ雲あり
高度14000ftの曇り

TAF: CYPR 170039Z 1701/1713 VRB03KT P6SM SCT140 BKN200 TEMPO 1701/1706 BKN140 FM170600 10005KT P6SM BKN080 OVC140 RMK FCST BASED ON AUTO OBS. NXT FCST BY 170700Z

4,000以上の空港の気象観測と天気予報(METAR報とTAF報)

利用可能な観測所は地図上に黄色い丸と赤い丸で示す。

丸の上にカーソルを重ねると観測所名を参照できる。

次にクリックすると気象観測と天気予報を参照できる。

マップの切り替え:黒色「×」印の緑ボタンをクリックして拡大、「-」印の緑ボタンをクリックして縮小、緑色の三角印をクリックして隣りの地図に切り替え


METAR-TAF: